Time;durP1;ratioP1;P1;durP2;ratioP2;P2;SDS_P1;SDS_P2;PMS_P1;PMS_P2;Temp;Humidity;BMP_temperature;BMP_pressure;BME280_temperature;BME280_humidity;BME280_pressure;Samples;Min_cycle;Max_cycle;Signal;HPM_P1;HPM_P2
2023/07/10 00:01:18;;;;;;;44.13;25.08;;;22.20;99.90;;;;;;5071449;28;20063;-57
2023/07/10 00:03:43;;;;;;;38.47;22.65;;;22.30;99.90;;;;;;5071408;28;20029;-59
2023/07/10 00:06:14;;;;;;;33.20;21.70;;;22.20;99.90;;;;;;5071366;28;20024;-54
2023/07/10 00:08:40;;;;;;;32.13;21.15;;;22.20;99.90;;;;;;5071116;28;20020;-57
2023/07/10 00:11:15;;;;;;;43.15;25.98;;;22.20;99.90;;;;;;5071333;28;20082;-59
2023/07/10 00:13:41;;;;;;;37.25;23.27;;;22.20;99.90;;;;;;5071279;28;20013;-59
2023/07/10 00:16:14;;;;;;;44.60;26.42;;;22.20;99.90;;;;;;5071379;28;20035;-58
2023/07/10 00:18:39;;;;;;;31.92;21.52;;;22.20;99.90;;;;;;5071188;28;20035;-58
2023/07/10 00:21:05;;;;;;;41.60;22.48;;;22.20;99.90;;;;;;5071343;28;20028;-58
2023/07/10 00:23:30;;;;;;;33.60;20.92;;;22.20;99.90;;;;;;5071089;28;20112;-60
2023/07/10 00:25:56;;;;;;;30.02;20.30;;;22.20;99.90;;;;;;5075054;28;20064;-61
2023/07/10 00:28:21;;;;;;;30.67;19.55;;;22.20;99.90;;;;;;5075124;28;20095;-59
2023/07/10 00:30:49;;;;;;;36.25;17.85;;;22.20;99.90;;;;;;5075188;28;20017;-57
2023/07/10 00:33:16;;;;;;;33.58;20.17;;;22.20;99.90;;;;;;5075344;28;20044;-58
2023/07/10 00:35:42;;;;;;;35.67;19.52;;;22.20;99.90;;;;;;5075003;28;20054;-56
2023/07/10 00:38:25;;;;;;;32.33;16.20;;;22.20;99.90;;;;;;5074921;28;20441;-61
2023/07/10 00:40:52;;;;;;;28.80;17.83;;;22.20;99.90;;;;;;5074862;28;20107;-57
2023/07/10 00:43:38;;;;;;;30.20;17.35;;;22.30;99.90;;;;;;5075596;28;20390;-60
2023/07/10 00:46:18;;;;;;;30.27;17.52;;;22.20;99.90;;;;;;5074810;28;20043;-57
2023/07/10 00:48:59;;;;;;;30.90;15.85;;;22.10;99.90;;;;;;5074781;28;20017;-58
2023/07/10 00:51:31;;;;;;;35.88;16.55;;;22.10;99.90;;;;;;5075018;28;20431;-60
2023/07/10 00:53:59;;;;;;;34.90;16.63;;;22.10;99.90;;;;;;5074797;28;20108;-60
2023/07/10 00:56:33;;;;;;;26.35;14.27;;;22.10;99.90;;;;;;5075014;28;20024;-59
2023/07/10 00:59:20;;;;;;;33.28;16.13;;;22.10;99.90;;;;;;5074712;28;20063;-58
2023/07/10 01:02:07;;;;;;;33.45;17.52;;;22.10;99.90;;;;;;5074838;28;20064;-60
2023/07/10 01:04:39;;;;;;;32.08;17.88;;;22.10;99.90;;;;;;5073950;28;20517;-53
2023/07/10 01:07:07;;;;;;;26.00;17.00;;;22.10;99.90;;;;;;5074528;28;20044;-58
2023/07/10 01:09:33;;;;;;;28.20;16.08;;;22.10;99.90;;;;;;5074343;28;20447;-60
2023/07/10 01:11:58;;;;;;;23.15;15.38;;;22.10;99.90;;;;;;5074410;28;20056;-60
2023/07/10 01:14:24;;;;;;;29.33;16.65;;;22.10;99.90;;;;;;5074313;28;20028;-57
2023/07/10 01:16:51;;;;;;;33.00;16.58;;;22.10;99.90;;;;;;5074233;28;20427;-58
2023/07/10 01:19:21;;;;;;;31.20;16.52;;;22.10;99.90;;;;;;5074140;28;20039;-59
2023/07/10 01:21:47;;;;;;;21.63;13.50;;;22.10;99.90;;;;;;5074268;28;20052;-58
2023/07/10 01:24:13;;;;;;;28.88;14.55;;;22.00;99.90;;;;;;5074130;28;20059;-60
2023/07/10 01:26:40;;;;;;;32.92;17.60;;;22.10;99.90;;;;;;5074098;28;20125;-56
2023/07/10 01:29:19;;;;;;;39.60;20.85;;;22.10;99.90;;;;;;5074210;28;20029;-57
2023/07/10 01:31:46;;;;;;;43.05;20.98;;;22.00;99.90;;;;;;5074169;28;20052;-56
2023/07/10 01:34:12;;;;;;;38.38;19.10;;;22.00;99.90;;;;;;5073918;28;20070;-60
2023/07/10 01:36:40;;;;;;;39.70;22.20;;;21.90;99.90;;;;;;5073952;28;20059;-58
2023/07/10 01:39:15;;;;;;;38.72;21.98;;;21.90;99.90;;;;;;5073799;28;20363;-59
2023/07/10 01:41:45;;;;;;;38.22;23.23;;;21.90;99.90;;;;;;5073830;28;20040;-56
2023/07/10 01:44:22;;;;;;;34.88;20.33;;;21.90;99.90;;;;;;5073788;28;20028;-54
2023/07/10 01:46:49;;;;;;;40.22;22.20;;;21.90;99.90;;;;;;5073768;28;20069;-57
2023/07/10 01:49:16;;;;;;;45.35;23.52;;;21.90;99.90;;;;;;5073832;28;20512;-56
2023/07/10 01:51:42;;;;;;;41.25;23.63;;;21.90;99.90;;;;;;5073880;28;20067;-54
2023/07/10 01:54:14;;;;;;;42.63;23.48;;;21.90;99.90;;;;;;5073719;28;20407;-58
2023/07/10 01:56:40;;;;;;;39.83;23.98;;;21.80;99.90;;;;;;5073572;28;20077;-55
2023/07/10 01:59:06;;;;;;;45.72;22.10;;;21.80;99.90;;;;;;5073450;28;20032;-54
2023/07/10 02:01:31;;;;;;;42.35;24.25;;;21.80;99.90;;;;;;5073590;28;20037;-55
2023/07/10 02:03:57;;;;;;;51.70;31.67;;;21.80;99.90;;;;;;5073295;28;20028;-57
2023/07/10 02:06:23;;;;;;;54.33;29.02;;;21.70;99.90;;;;;;5073592;28;20109;-54
2023/07/10 02:08:48;;;;;;;59.42;27.20;;;21.70;99.90;;;;;;5073073;28;20031;-53
2023/07/10 02:11:14;;;;;;;47.28;27.25;;;21.60;99.90;;;;;;5073468;28;20364;-55
2023/07/10 02:13:40;;;;;;;47.92;28.60;;;21.60;99.90;;;;;;5073289;28;20432;-55
2023/07/10 02:16:10;;;;;;;47.78;26.20;;;21.50;99.90;;;;;;5073216;28;20039;-57
2023/07/10 02:18:36;;;;;;;40.22;25.48;;;21.60;99.90;;;;;;5073028;28;20021;-57
2023/07/10 02:21:01;;;;;;;41.50;26.45;;;21.50;99.90;;;;;;5073234;28;20035;-55
2023/07/10 02:23:27;;;;;;;40.38;26.58;;;21.50;99.90;;;;;;5073257;28;20032;-54
2023/07/10 02:25:53;;;;;;;48.67;27.63;;;21.40;99.90;;;;;;5072850;28;20028;-53
2023/07/10 02:28:18;;;;;;;41.53;25.67;;;21.40;99.90;;;;;;5072797;28;20021;-56
2023/07/10 02:30:44;;;;;;;39.92;25.13;;;21.40;99.90;;;;;;5072984;28;20022;-56
2023/07/10 02:33:09;;;;;;;42.35;27.13;;;21.40;99.90;;;;;;5073064;28;20558;-55
2023/07/10 02:35:35;;;;;;;44.60;26.52;;;21.40;99.90;;;;;;5072745;28;20028;-60
2023/07/10 02:38:00;;;;;;;44.25;27.65;;;21.40;99.90;;;;;;5072671;28;20548;-58
2023/07/10 02:40:26;;;;;;;40.28;26.92;;;21.40;99.90;;;;;;5072887;28;20021;-54
2023/07/10 02:42:51;;;;;;;47.13;27.85;;;21.40;99.90;;;;;;5072525;28;20052;-56
2023/07/10 02:45:18;;;;;;;49.75;29.63;;;21.40;99.90;;;;;;5072530;28;20033;-61
2023/07/10 02:47:44;;;;;;;52.38;32.40;;;21.30;99.90;;;;;;5071932;28;20094;-56
2023/07/10 02:50:10;;;;;;;61.50;33.45;;;21.30;99.90;;;;;;5072483;28;20486;-55
2023/07/10 02:52:36;;;;;;;70.50;35.13;;;21.30;99.90;;;;;;5072575;28;20475;-54
2023/07/10 02:55:01;;;;;;;65.07;33.38;;;21.20;99.90;;;;;;5072372;28;20031;-58
2023/07/10 02:57:27;;;;;;;59.63;34.67;;;21.10;99.90;;;;;;5072380;28;20036;-56
2023/07/10 02:59:52;;;;;;;62.88;34.85;;;21.10;99.90;;;;;;5072209;28;20398;-55
2023/07/10 03:02:19;;;;;;;63.13;35.50;;;21.10;99.90;;;;;;5072452;28;20504;-61
2023/07/10 03:04:44;;;;;;;54.22;32.63;;;20.90;99.90;;;;;;5072135;28;20027;-59
2023/07/10 03:07:10;;;;;;;58.33;32.22;;;21.00;99.90;;;;;;5072260;28;20025;-54
2023/07/10 03:09:36;;;;;;;52.22;30.48;;;20.90;99.90;;;;;;5071972;28;20021;-52
2023/07/10 03:12:01;;;;;;;46.60;29.33;;;20.90;99.90;;;;;;5072144;28;20020;-60
2023/07/10 03:14:27;;;;;;;48.88;28.88;;;20.80;99.90;;;;;;5072093;28;20398;-57
2023/07/10 03:16:53;;;;;;;48.75;29.48;;;20.80;99.90;;;;;;5071967;28;20075;-59
2023/07/10 03:19:19;;;;;;;45.40;30.50;;;20.80;99.90;;;;;;5071962;28;20063;-54
2023/07/10 03:21:44;;;;;;;51.55;31.25;;;20.80;99.90;;;;;;5072026;28;20029;-59
2023/07/10 03:24:10;;;;;;;52.97;30.77;;;20.70;99.90;;;;;;5071790;28;20032;-56
2023/07/10 03:26:35;;;;;;;49.28;28.80;;;20.80;99.90;;;;;;5071768;28;20017;-61
2023/07/10 03:29:11;;;;;;;50.63;30.63;;;20.70;99.90;;;;;;5071777;28;20365;-56
2023/07/10 03:31:37;;;;;;;46.95;27.30;;;20.70;99.90;;;;;;5071863;28;20012;-58
2023/07/10 03:34:02;;;;;;;47.00;28.55;;;20.70;99.90;;;;;;5071869;28;20036;-55
2023/07/10 03:36:28;;;;;;;52.75;26.52;;;20.70;99.90;;;;;;5071798;28;20016;-58
2023/07/10 03:38:54;;;;;;;41.28;24.27;;;20.60;99.90;;;;;;5071505;28;20020;-60
2023/07/10 03:41:20;;;;;;;45.05;24.40;;;20.70;99.90;;;;;;5071570;28;20582;-58
2023/07/10 03:43:48;;;;;;;40.75;23.90;;;20.70;99.90;;;;;;5071642;28;20058;-63
2023/07/10 03:46:14;;;;;;;43.47;25.13;;;20.60;99.90;;;;;;5071698;28;20021;-60
2023/07/10 03:48:40;;;;;;;42.95;24.27;;;20.60;99.90;;;;;;5071566;28;20625;-56
2023/07/10 03:51:05;;;;;;;44.05;25.23;;;20.60;99.90;;;;;;5071640;28;20036;-55
2023/07/10 03:53:31;;;;;;;39.85;23.65;;;20.60;99.90;;;;;;5071614;28;20363;-58
2023/07/10 03:55:56;;;;;;;38.65;23.15;;;20.60;99.90;;;;;;5071260;28;20036;-55
2023/07/10 03:58:28;;;;;;;41.95;22.98;;;20.60;99.90;;;;;;5070777;28;20091;-60
2023/07/10 04:00:58;;;;;;;35.33;20.67;;;20.60;99.90;;;;;;5071348;28;20482;-60
2023/07/10 04:03:27;;;;;;;43.47;23.13;;;20.70;99.90;;;;;;5071696;28;20032;-56
2023/07/10 04:05:54;;;;;;;40.85;23.67;;;20.70;99.90;;;;;;5071188;28;20469;-55
2023/07/10 04:08:20;;;;;;;47.72;25.30;;;20.70;99.90;;;;;;5071138;28;20538;-57
2023/07/10 04:10:54;;;;;;;43.95;26.23;;;20.60;99.90;;;;;;5071340;28;20511;-58
2023/07/10 04:13:21;;;;;;;44.03;23.90;;;20.60;99.90;;;;;;5071458;28;20021;-55
2023/07/10 04:16:02;;;;;;;44.97;24.98;;;20.60;99.90;;;;;;5071182;28;20044;-57
2023/07/10 04:18:29;;;;;;;53.45;25.63;;;20.60;99.90;;;;;;5071107;28;20103;-60
2023/07/10 04:20:56;;;;;;;46.53;24.38;;;20.50;99.90;;;;;;5071037;28;20111;-58
2023/07/10 04:23:22;;;;;;;56.75;26.70;;;20.50;99.90;;;;;;5071430;28;20024;-57
2023/07/10 04:25:48;;;;;;;57.15;27.75;;;20.50;99.90;;;;;;5070966;28;20485;-57
2023/07/10 04:28:13;;;;;;;69.07;30.05;;;20.50;99.90;;;;;;5070985;28;20525;-53
2023/07/10 04:30:39;;;;;;;57.85;30.60;;;20.50;99.90;;;;;;5071055;28;20048;-56
2023/07/10 04:33:08;;;;;;;60.10;31.70;;;20.40;99.90;;;;;;5071150;28;20394;-55
2023/07/10 04:35:33;;;;;;;61.15;29.38;;;20.40;99.90;;;;;;5070818;28;20029;-58
2023/07/10 04:37:59;;;;;;;62.70;30.50;;;20.40;99.90;;;;;;5070865;28;20396;-55
2023/07/10 04:40:24;;;;;;;58.00;29.35;;;20.40;99.90;;;;;;5071035;28;20056;-52
2023/07/10 04:42:51;;;;;;;53.58;29.38;;;20.40;99.90;;;;;;5070886;28;20152;-56
2023/07/10 04:45:17;;;;;;;58.53;30.58;;;20.30;99.90;;;;;;5070797;28;20020;-53
2023/07/10 04:47:43;;;;;;;51.17;27.98;;;20.30;99.90;;;;;;5070871;28;20021;-60
2023/07/10 04:50:08;;;;;;;56.00;26.98;;;20.30;99.90;;;;;;5070718;28;20071;-59
2023/07/10 04:52:34;;;;;;;59.95;28.33;;;20.40;99.90;;;;;;5070893;28;20052;-53
2023/07/10 04:55:00;;;;;;;55.33;26.70;;;20.40;99.90;;;;;;5070772;28;20036;-57
2023/07/10 04:57:25;;;;;;;54.90;26.92;;;20.40;99.90;;;;;;5070892;28;20028;-59
2023/07/10 04:59:51;;;;;;;56.08;26.23;;;20.40;99.90;;;;;;5070592;28;20100;-58
2023/07/10 05:02:16;;;;;;;48.95;24.67;;;20.40;99.90;;;;;;5070893;28;20059;-58
2023/07/10 05:04:42;;;;;;;46.95;24.83;;;20.40;99.90;;;;;;5070404;28;20029;-58
2023/07/10 05:07:08;;;;;;;46.25;23.95;;;20.30;99.90;;;;;;5070708;28;20028;-57
2023/07/10 05:09:33;;;;;;;49.42;21.15;;;20.30;99.90;;;;;;5070616;28;20024;-59
2023/07/10 05:11:59;;;;;;;41.75;19.50;;;20.30;99.90;;;;;;5074491;28;20024;-56
2023/07/10 05:14:24;;;;;;;33.72;17.55;;;20.30;99.90;;;;;;5074313;28;20029;-55
2023/07/10 05:16:50;;;;;;;31.50;16.58;;;20.40;99.90;;;;;;5074209;28;20479;-59
2023/07/10 05:19:16;;;;;;;30.90;17.65;;;20.40;99.90;;;;;;5074035;28;20016;-56
2023/07/10 05:21:42;;;;;;;34.58;16.55;;;20.30;99.90;;;;;;5074287;28;20494;-54
2023/07/10 05:24:08;;;;;;;45.75;18.05;;;20.30;99.90;;;;;;5074105;28;20507;-57
2023/07/10 05:26:33;;;;;;;32.35;16.92;;;20.30;99.90;;;;;;5074053;28;20024;-55
2023/07/10 05:28:59;;;;;;;34.10;16.75;;;20.30;99.90;;;;;;5073895;28;20024;-59
2023/07/10 05:31:24;;;;;;;48.47;17.17;;;20.30;99.90;;;;;;5074083;28;20063;-58
2023/07/10 05:33:50;;;;;;;34.00;16.48;;;20.30;99.90;;;;;;5073704;28;20031;-59
2023/07/10 05:36:17;;;;;;;35.33;16.27;;;20.30;99.90;;;;;;5074033;28;20024;-58
2023/07/10 05:38:48;;;;;;;33.95;14.25;;;20.20;99.90;;;;;;5072390;28;20107;-56
2023/07/10 05:41:17;;;;;;;31.30;14.05;;;20.10;99.90;;;;;;5073958;28;20037;-59
2023/07/10 05:43:43;;;;;;;25.02;12.40;;;20.20;99.90;;;;;;5073889;28;20028;-58
2023/07/10 05:46:08;;;;;;;30.80;12.38;;;20.20;99.90;;;;;;5073649;28;20032;-58
2023/07/10 05:48:34;;;;;;;34.00;12.25;;;20.20;99.90;;;;;;5073443;28;20104;-58
2023/07/10 05:51:00;;;;;;;28.63;10.82;;;20.10;99.90;;;;;;5073801;28;20048;-58
2023/07/10 05:53:26;;;;;;;23.38;10.10;;;20.20;99.90;;;;;;5073853;28;20032;-58
2023/07/10 05:55:53;;;;;;;22.55;10.25;;;20.20;99.90;;;;;;5073559;28;20033;-57
2023/07/10 05:58:20;;;;;;;27.75;10.20;;;20.20;99.90;;;;;;5073550;28;20036;-57
2023/07/10 06:00:49;;;;;;;24.13;10.38;;;20.20;99.90;;;;;;5073572;28;20085;-57
2023/07/10 06:03:15;;;;;;;25.50;10.50;;;20.20;99.90;;;;;;5073752;28;20036;-60
2023/07/10 06:05:41;;;;;;;20.00;10.10;;;20.20;99.90;;;;;;5073364;28;20028;-60
2023/07/10 06:08:08;;;;;;;21.92;10.30;;;20.20;99.90;;;;;;5073381;28;20028;-58
2023/07/10 06:10:34;;;;;;;28.75;9.98;;;20.20;99.90;;;;;;5073318;28;20025;-57
2023/07/10 06:13:00;;;;;;;24.73;10.18;;;20.20;99.90;;;;;;5073508;28;20091;-57
2023/07/10 06:15:25;;;;;;;32.65;9.18;;;20.20;99.90;;;;;;5073174;28;20032;-59
2023/07/10 06:17:51;;;;;;;30.67;9.27;;;20.20;99.90;;;;;;5073497;28;20110;-58
2023/07/10 06:20:16;;;;;;;18.75;9.00;;;20.20;99.90;;;;;;5073593;28;20021;-60
2023/07/10 06:22:42;;;;;;;24.48;9.23;;;20.20;99.90;;;;;;5072346;28;20036;-60
2023/07/10 06:25:08;;;;;;;21.98;9.32;;;20.10;99.90;;;;;;5072985;28;20029;-59
2023/07/10 06:27:34;;;;;;;19.90;9.05;;;20.20;99.90;;;;;;5072979;28;20499;-60
2023/07/10 06:29:59;;;;;;;23.58;9.05;;;20.20;99.90;;;;;;5072718;28;20059;-59
2023/07/10 06:32:25;;;;;;;25.77;9.23;;;20.20;99.90;;;;;;5072908;28;20096;-61
2023/07/10 06:34:51;;;;;;;23.02;9.38;;;20.30;99.90;;;;;;5072833;28;20077;-61
2023/07/10 06:37:17;;;;;;;20.63;9.38;;;20.40;99.90;;;;;;5072859;28;20039;-60
2023/07/10 06:39:42;;;;;;;20.55;9.75;;;20.50;99.90;;;;;;5072654;28;20032;-59
2023/07/10 06:42:08;;;;;;;29.45;8.68;;;20.50;99.90;;;;;;5072774;28;20036;-60
2023/07/10 06:44:33;;;;;;;24.50;9.82;;;20.60;99.90;;;;;;5072392;28;20036;-62
2023/07/10 06:46:59;;;;;;;24.63;9.35;;;20.60;99.90;;;;;;5072602;28;20024;-56
2023/07/10 06:49:25;;;;;;;19.52;9.63;;;20.70;99.90;;;;;;5072396;28;20020;-57
2023/07/10 06:51:51;;;;;;;23.80;9.05;;;20.70;99.90;;;;;;5072526;28;20024;-56
2023/07/10 06:54:16;;;;;;;23.45;11.35;;;20.90;99.90;;;;;;5072531;28;20020;-61
2023/07/10 06:56:42;;;;;;;23.20;9.10;;;21.00;99.90;;;;;;5072352;28;20029;-61
2023/07/10 06:59:07;;;;;;;31.10;10.23;;;21.00;99.90;;;;;;5072302;28;20020;-58
2023/07/10 07:01:33;;;;;;;27.58;9.70;;;21.00;99.90;;;;;;5072929;28;20044;-59
2023/07/10 07:03:58;;;;;;;24.10;8.82;;;21.10;99.90;;;;;;5072455;28;20035;-58
2023/07/10 07:06:24;;;;;;;17.13;7.72;;;21.20;99.90;;;;;;5072418;28;20025;-57
2023/07/10 07:08:52;;;;;;;15.95;6.97;;;21.30;99.90;;;;;;5072322;28;20095;-57
2023/07/10 07:11:18;;;;;;;17.30;7.18;;;21.50;99.90;;;;;;5072506;28;20074;-61
2023/07/10 07:13:43;;;;;;;15.52;7.00;;;21.60;99.90;;;;;;5072041;28;20025;-58
2023/07/10 07:16:09;;;;;;;20.67;7.00;;;21.70;99.90;;;;;;5072060;28;20383;-58
2023/07/10 07:18:35;;;;;;;28.27;8.23;;;21.70;99.90;;;;;;5071736;28;20070;-59
2023/07/10 07:21:01;;;;;;;21.13;7.13;;;21.80;99.90;;;;;;5072408;28;20048;-55
2023/07/10 07:23:27;;;;;;;21.90;7.35;;;21.80;99.90;;;;;;5072358;28;20032;-57
2023/07/10 07:25:54;;;;;;;14.82;7.53;;;21.80;99.90;;;;;;5071684;28;20039;-55
2023/07/10 07:28:21;;;;;;;16.27;6.95;;;21.80;99.90;;;;;;5071641;28;20564;-58
2023/07/10 07:30:49;;;;;;;17.38;7.43;;;21.80;99.90;;;;;;5071864;28;20042;-54
2023/07/10 07:33:16;;;;;;;17.63;7.40;;;21.80;99.90;;;;;;5071769;28;20115;-58
2023/07/10 07:35:42;;;;;;;17.95;5.90;;;21.70;99.90;;;;;;5071674;28;20021;-58
2023/07/10 07:38:08;;;;;;;18.42;7.38;;;21.80;99.90;;;;;;5071508;28;20085;-55
2023/07/10 07:40:36;;;;;;;12.32;6.38;;;21.80;99.90;;;;;;5071709;28;20032;-56
2023/07/10 07:43:02;;;;;;;12.88;6.40;;;21.90;99.90;;;;;;5071603;28;20117;-56
2023/07/10 07:45:27;;;;;;;12.70;5.85;;;21.90;99.90;;;;;;5071758;28;20052;-56
2023/07/10 07:47:53;;;;;;;13.27;6.50;;;21.80;99.90;;;;;;5071760;28;20020;-59
2023/07/10 07:50:19;;;;;;;14.00;5.93;;;21.80;99.90;;;;;;5071750;28;20028;-57
2023/07/10 07:52:44;;;;;;;9.73;5.75;;;21.80;99.90;;;;;;5071630;28;20020;-55
2023/07/10 07:55:10;;;;;;;10.48;4.63;;;21.70;99.90;;;;;;5071536;28;20054;-55
2023/07/10 07:57:38;;;;;;;9.95;5.18;;;21.70;99.90;;;;;;5071506;28;20367;-60
2023/07/10 08:00:05;;;;;;;9.85;5.68;;;21.70;99.90;;;;;;5071338;28;20046;-61
2023/07/10 08:02:30;;;;;;;9.57;5.20;;;21.70;99.90;;;;;;5071360;28;20029;-56
2023/07/10 08:04:56;;;;;;;13.05;5.85;;;21.80;99.90;;;;;;5071097;28;20028;-61
2023/07/10 08:07:21;;;;;;;11.35;6.18;;;21.80;99.90;;;;;;5071508;28;20020;-57
2023/07/10 08:09:47;;;;;;;14.35;4.97;;;21.90;99.90;;;;;;5071115;28;20025;-58
2023/07/10 08:12:13;;;;;;;14.57;5.05;;;21.80;99.90;;;;;;5071419;28;20044;-58
2023/07/10 08:14:38;;;;;;;11.40;5.20;;;21.90;99.90;;;;;;5071390;28;20025;-59
2023/07/10 08:17:04;;;;;;;16.30;5.82;;;22.00;99.90;;;;;;5071269;28;20020;-58
2023/07/10 08:19:29;;;;;;;9.77;5.07;;;22.10;99.90;;;;;;5071224;28;20029;-57
2023/07/10 08:21:57;;;;;;;11.38;5.30;;;22.20;99.90;;;;;;5071399;28;20054;-57
2023/07/10 08:24:25;;;;;;;15.30;5.35;;;22.10;99.90;;;;;;5071297;28;20025;-58
2023/07/10 08:26:51;;;;;;;17.88;5.90;;;22.20;99.90;;;;;;5071092;28;20393;-60
2023/07/10 08:29:31;;;;;;;11.00;4.97;;;22.10;99.90;;;;;;5069846;28;20020;-58
2023/07/10 08:31:58;;;;;;;10.07;5.13;;;22.10;99.90;;;;;;5071095;28;20021;-55
2023/07/10 08:34:25;;;;;;;12.07;5.60;;;22.30;99.90;;;;;;5071133;28;20121;-59
2023/07/10 08:36:54;;;;;;;9.55;5.30;;;22.40;99.90;;;;;;5071082;28;20021;-54
2023/07/10 08:39:22;;;;;;;9.85;5.05;;;22.40;99.90;;;;;;5071017;28;20021;-57
2023/07/10 08:41:54;;;;;;;7.50;5.03;;;22.50;99.90;;;;;;5071678;28;20025;-60
2023/07/10 08:44:22;;;;;;;12.18;5.18;;;22.50;99.90;;;;;;5070889;28;20025;-60
2023/07/10 08:46:48;;;;;;;20.17;4.85;;;22.40;99.90;;;;;;5074695;28;20059;-58
2023/07/10 08:49:34;;;;;;;14.90;4.75;;;22.50;99.90;;;;;;5074887;28;20487;-59
2023/07/10 08:52:19;;;;;;;7.22;4.30;;;22.40;99.90;;;;;;5074876;28;20017;-60
2023/07/10 08:54:48;;;;;;;16.10;4.13;;;22.50;99.90;;;;;;5074792;28;20024;-58
2023/07/10 08:57:24;;;;;;;10.93;3.80;;;22.60;99.90;;;;;;5074765;28;20517;-60
2023/07/10 08:59:58;;;;;;;7.63;3.55;;;22.80;99.90;;;;;;5074433;28;20107;-60
2023/07/10 09:02:32;;;;;;;12.50;3.97;;;22.80;99.90;;;;;;5074735;28;20490;-60
2023/07/10 09:04:59;;;;;;;6.65;3.45;;;22.80;99.90;;;;;;5074508;28;20107;-58
2023/07/10 09:07:26;;;;;;;4.90;2.50;;;22.90;99.90;;;;;;5074445;28;20025;-59
2023/07/10 09:10:02;;;;;;;6.95;2.72;;;22.90;99.90;;;;;;5074310;28;20482;-60
2023/07/10 09:12:40;;;;;;;5.97;2.30;;;22.90;99.90;;;;;;5074461;28;20033;-60
2023/07/10 09:15:07;;;;;;;6.22;2.63;;;22.90;99.90;;;;;;5074493;28;20025;-58
2023/07/10 09:17:57;;;;;;;8.65;3.03;;;22.90;99.90;;;;;;5074477;28;20513;-57
2023/07/10 09:20:24;;;;;;;8.20;2.40;;;23.10;99.90;;;;;;5074353;28;20028;-60
2023/07/10 09:22:58;;;;;;;6.10;2.50;;;23.20;99.90;;;;;;5074250;28;20020;-60
2023/07/10 09:25:25;;;;;;;3.95;1.48;;;23.30;99.90;;;;;;5074174;28;20028;-58
2023/07/10 09:27:51;;;;;;;3.25;1.48;;;23.30;99.90;;;;;;5074071;28;20702;-58
2023/07/10 09:30:30;;;;;;;4.50;1.80;;;23.10;99.90;;;;;;5073971;28;20028;-59
2023/07/10 09:33:03;;;;;;;6.45;2.10;;;23.30;99.90;;;;;;5074089;28;20020;-60
2023/07/10 09:35:30;;;;;;;6.13;2.00;;;23.40;99.90;;;;;;5073925;28;20078;-61
2023/07/10 09:37:55;;;;;;;7.65;1.77;;;23.50;99.90;;;;;;5073828;28;20032;-59
2023/07/10 09:40:43;;;;;;;9.13;2.03;;;23.60;99.90;;;;;;5073831;28;20034;-57
2023/07/10 09:43:16;;;;;;;8.27;1.83;;;23.70;99.90;;;;;;5073981;28;20053;-56
2023/07/10 09:45:48;;;;;;;5.00;1.73;;;23.60;99.90;;;;;;5073636;28;20075;-61
2023/07/10 09:48:25;;;;;;;4.40;1.45;;;23.80;99.90;;;;;;5073583;28;20024;-59
2023/07/10 09:50:52;;;;;;;4.40;1.45;;;23.90;99.90;;;;;;5073737;28;20027;-60
2023/07/10 09:53:45;;;;;;;3.80;1.55;;;23.90;99.90;;;;;;5073804;28;20390;-60
2023/07/10 09:56:23;;;;;;;4.03;1.70;;;23.80;99.90;;;;;;5072711;28;20032;-60
2023/07/10 09:58:54;;;;;;;2.45;1.42;;;23.70;99.90;;;;;;5073123;28;20059;-61
2023/07/10 10:01:25;;;;;;;3.13;1.52;;;24.00;99.90;;;;;;5073802;28;20389;-60
2023/07/10 10:03:52;;;;;;;4.82;1.40;;;24.10;99.90;;;;;;5073489;28;20112;-58
2023/07/10 10:06:22;;;;;;;70.43;7.00;;;24.20;99.90;;;;;;5073543;28;20025;-60
2023/07/10 10:08:49;;;;;;;2.67;1.35;;;24.60;99.90;;;;;;5073087;28;20386;-56
2023/07/10 10:11:14;;;;;;;5.22;2.17;;;24.80;99.90;;;;;;5073343;28;20023;-59
2023/07/10 10:13:44;;;;;;;6.70;1.33;;;24.80;99.90;;;;;;5073218;28;20025;-57
2023/07/10 10:16:33;;;;;;;4.68;1.90;;;24.80;99.90;;;;;;5073310;28;20029;-61
2023/07/10 10:19:06;;;;;;;8.07;1.70;;;25.00;99.90;;;;;;5073164;28;20025;-61
2023/07/10 10:21:34;;;;;;;4.80;1.70;;;25.20;99.90;;;;;;5073362;28;20036;-58
2023/07/10 10:24:04;;;;;;;3.38;1.42;;;25.00;99.90;;;;;;5073154;28;20424;-57
2023/07/10 10:27:09;;;;;;;8.57;1.60;;;24.90;99.90;;;;;;5072897;28;20391;-59
2023/07/10 10:30:04;;;;;;;3.38;1.27;;;24.80;99.90;;;;;;5072646;28;20048;-58
2023/07/10 10:32:32;;;;;;;5.00;1.30;;;24.80;99.90;;;;;;5073037;28;20020;-58
2023/07/10 10:35:30;;;;;;;3.35;1.20;;;24.70;99.90;;;;;;5072569;28;20103;-59
2023/07/10 10:38:16;;;;;;;8.13;1.63;;;24.80;99.90;;;;;;5072524;28;20027;-61
2023/07/10 10:41:00;;;;;;;4.72;1.50;;;24.80;99.90;;;;;;5072454;28;20036;-56
2023/07/10 10:43:31;;;;;;;6.38;1.55;;;24.80;99.90;;;;;;5072553;28;20039;-60
2023/07/10 10:46:15;;;;;;;5.97;1.02;;;24.90;99.90;;;;;;5072223;28;20032;-54
2023/07/10 10:48:51;;;;;;;8.07;1.80;;;25.30;99.90;;;;;;5072307;28;20051;-62
2023/07/10 10:51:29;;;;;;;9.45;1.80;;;25.70;99.90;;;;;;5072574;28;20059;-61
2023/07/10 10:54:10;;;;;;;3.92;1.50;;;25.80;99.90;;;;;;5072478;28;20510;-55
2023/07/10 10:56:42;;;;;;;3.38;1.60;;;26.00;99.90;;;;;;5072191;28;20028;-60
2023/07/10 10:59:28;;;;;;;8.77;1.90;;;26.10;99.90;;;;;;5072303;28;20541;-58
2023/07/10 11:02:16;;;;;;;4.05;1.60;;;26.20;99.90;;;;;;5072254;28;20234;-58
2023/07/10 11:04:49;;;;;;;6.78;1.38;;;26.00;99.90;;;;;;5072074;28;20028;-57
2023/07/10 11:07:19;;;;;;;3.35;1.35;;;26.10;99.90;;;;;;5072061;28;20085;-56
2023/07/10 11:09:49;;;;;;;6.72;1.50;;;26.20;99.90;;;;;;5071897;28;20024;-55
2023/07/10 11:12:33;;;;;;;8.20;1.60;;;26.30;99.90;;;;;;5072214;28;20017;-59
2023/07/10 11:15:12;;;;;;;5.65;1.35;;;26.40;99.90;;;;;;5072012;28;20025;-58
2023/07/10 11:17:38;;;;;;;4.88;1.38;;;26.60;99.90;;;;;;5071734;28;20035;-57
2023/07/10 11:20:05;;;;;;;9.05;1.83;;;26.70;99.90;;;;;;5071869;28;20378;-59
2023/07/10 11:22:32;;;;;;;3.28;1.40;;;26.80;99.90;;;;;;5071961;28;20028;-58
2023/07/10 11:25:02;;;;;;;3.72;1.40;;;26.90;99.90;;;;;;5071676;28;20533;-60
2023/07/10 11:27:30;;;;;;;4.72;1.67;;;26.10;99.90;;;;;;5071880;28;20028;-59
2023/07/10 11:30:10;;;;;;;6.07;1.48;;;26.10;99.90;;;;;;5071428;28;20044;-61
2023/07/10 11:32:56;;;;;;;5.45;1.23;;;26.30;99.90;;;;;;5071846;28;20029;-53
2023/07/10 11:35:23;;;;;;;9.07;1.45;;;26.50;99.90;;;;;;5071798;28;20059;-58
2023/07/10 11:37:48;;;;;;;20.85;2.72;;;26.90;99.90;;;;;;5071455;28;20036;-60
2023/07/10 11:40:29;;;;;;;3.72;1.30;;;27.20;99.90;;;;;;5071456;28;20028;-59
2023/07/10 11:43:22;;;;;;;3.90;1.48;;;27.70;99.90;;;;;;5071484;28;20063;-60
2023/07/10 11:46:02;;;;;;;4.72;1.38;;;27.80;99.90;;;;;;5071246;28;20045;-59
2023/07/10 11:48:39;;;;;;;4.22;1.15;;;27.40;99.90;;;;;;5071345;28;20486;-61
2023/07/10 11:51:32;;;;;;;2.63;1.33;;;27.70;99.90;;;;;;5071555;28;20564;-58
2023/07/10 11:54:04;;;;;;;2.67;1.20;;;28.00;99.90;;;;;;5071404;28;20486;-57
2023/07/10 11:56:30;;;;;;;7.93;1.35;;;28.30;99.90;;;;;;5071294;28;20024;-58
2023/07/10 11:58:57;;;;;;;2.58;1.10;;;28.50;98.50;;;;;;5071218;28;20055;-60
2023/07/10 12:01:24;;;;;;;4.22;1.58;;;28.20;98.50;;;;;;5071427;28;20100;-58
2023/07/10 12:03:55;;;;;;;4.50;1.02;;;27.60;99.60;;;;;;5071468;28;20083;-58
2023/07/10 12:06:23;;;;;;;4.13;1.60;;;27.20;99.90;;;;;;5071424;28;20035;-58
2023/07/10 12:08:51;;;;;;;6.03;1.80;;;27.30;99.90;;;;;;5069763;28;20023;-60
2023/07/10 12:11:32;;;;;;;5.60;1.55;;;27.30;99.80;;;;;;5071201;28;20056;-56
2023/07/10 12:14:17;;;;;;;3.40;1.17;;;27.60;99.90;;;;;;5071147;28;20024;-59
2023/07/10 12:16:58;;;;;;;6.20;1.40;;;27.90;99.90;;;;;;5071195;28;20036;-60
2023/07/10 12:19:33;;;;;;;2.90;1.40;;;28.00;99.90;;;;;;5070529;28;20386;-58
2023/07/10 12:22:01;;;;;;;2.50;1.08;;;28.20;98.70;;;;;;5071121;28;20064;-60
2023/07/10 12:24:26;;;;;;;3.30;1.33;;;28.00;99.00;;;;;;5070870;28;20032;-57
2023/07/10 12:26:58;;;;;;;3.35;1.25;;;28.10;98.00;;;;;;5071092;28;20035;-57
2023/07/10 12:29:24;;;;;;;5.70;1.60;;;27.80;97.80;;;;;;5070971;28;20024;-60
2023/07/10 12:31:50;;;;;;;2.83;1.23;;;27.80;98.50;;;;;;5070959;28;20379;-61
2023/07/10 12:34:24;;;;;;;4.90;1.33;;;28.20;98.30;;;;;;5070922;28;20095;-58
2023/07/10 12:36:52;;;;;;;2.70;1.05;;;28.40;97.50;;;;;;5070827;28;20033;-58
2023/07/10 12:39:19;;;;;;;4.95;1.20;;;28.50;96.20;;;;;;5070825;28;20082;-55
2023/07/10 12:41:45;;;;;;;4.00;1.20;;;28.10;96.30;;;;;;5070815;28;20039;-60
2023/07/10 12:44:28;;;;;;;8.32;1.52;;;28.10;96.60;;;;;;5070847;28;20029;-59
2023/07/10 12:47:14;;;;;;;4.22;1.73;;;28.40;97.00;;;;;;5070905;28;20039;-60